createdAt,value
2018-02-05T00:00:47.214Z,99871.20
2018-02-05T00:03:14.763Z,99877.22
2018-02-05T00:05:42.363Z,99874.91
2018-02-05T00:08:10.308Z,99877.37
2018-02-05T00:10:37.854Z,99874.09
2018-02-05T00:13:05.527Z,99870.81
2018-02-05T00:15:33.133Z,99873.28
2018-02-05T00:18:00.712Z,99877.56
2018-02-05T00:20:29.116Z,99884.20
2018-02-05T00:22:56.665Z,99881.94
2018-02-05T00:25:24.810Z,99879.00
2018-02-05T00:27:52.420Z,99876.94
2018-02-05T00:30:20.075Z,99883.19
2018-02-05T00:32:48.549Z,99886.44
2018-02-05T00:35:16.087Z,99889.33
2018-02-05T00:37:44.099Z,99886.06
2018-02-05T00:40:11.639Z,99887.19
2018-02-05T00:42:39.244Z,99889.19
2018-02-05T00:45:06.868Z,99883.02
2018-02-05T00:47:34.438Z,99890.95
2018-02-05T00:50:02.027Z,99892.63
2018-02-05T00:52:30.093Z,99885.94
2018-02-05T00:54:57.707Z,99896.08
2018-02-05T00:57:25.308Z,99900.11
2018-02-05T00:59:53.410Z,99907.61
2018-02-05T01:02:21.012Z,99909.27
2018-02-05T01:04:48.574Z,99908.59
2018-02-05T01:07:16.194Z,99905.49
2018-02-05T01:09:43.735Z,99906.38
2018-02-05T01:12:11.316Z,99915.67
2018-02-05T01:14:39.359Z,99912.73
2018-02-05T01:17:06.955Z,99923.32
2018-02-05T01:19:34.534Z,99922.46
2018-02-05T01:22:02.432Z,99927.30
2018-02-05T01:24:30.014Z,99931.09
2018-02-05T01:26:57.986Z,99933.56
2018-02-05T01:29:25.582Z,99937.57
2018-02-05T01:31:53.176Z,99930.28
2018-02-05T01:34:20.775Z,99932.42
2018-02-05T01:36:48.314Z,99933.59
2018-02-05T01:39:15.895Z,99929.48
2018-02-05T01:41:43.457Z,99942.11
2018-02-05T01:44:11.058Z,99942.11
2018-02-05T01:46:38.650Z,99944.34
2018-02-05T01:49:06.243Z,99943.59
2018-02-05T01:51:33.791Z,99955.48
2018-02-05T01:54:01.858Z,99955.41
2018-02-05T01:56:29.799Z,99955.30
2018-02-05T01:58:57.385Z,99956.53
2018-02-05T02:01:24.934Z,99965.92
2018-02-05T02:03:53.040Z,99969.22
2018-02-05T02:06:21.654Z,99971.73
2018-02-05T02:08:49.223Z,99978.66
2018-02-05T02:11:16.804Z,99978.05
2018-02-05T02:13:44.391Z,99975.69
2018-02-05T02:16:11.926Z,99975.64
2018-02-05T02:18:39.508Z,99977.78
2018-02-05T02:21:07.046Z,99984.19
2018-02-05T02:23:34.643Z,99979.58
2018-02-05T02:26:02.204Z,99991.09
2018-02-05T02:28:29.774Z,99994.73
2018-02-05T02:30:58.017Z,99993.48
2018-02-05T02:33:25.612Z,99987.06
2018-02-05T02:35:53.208Z,99993.62
2018-02-05T02:38:20.888Z,99994.45
2018-02-05T02:40:48.469Z,99995.76
2018-02-05T02:43:16.063Z,99997.84
2018-02-05T02:45:43.622Z,100007.52
2018-02-05T02:48:11.626Z,100012.00
2018-02-05T02:50:39.227Z,100011.13
2018-02-05T02:53:07.184Z,100008.82
2018-02-05T02:55:34.782Z,100010.05
2018-02-05T02:58:02.764Z,100014.84
2018-02-05T03:00:30.376Z,100009.48
2018-02-05T03:02:57.974Z,100011.65
2018-02-05T03:05:25.903Z,100017.64
2018-02-05T03:07:53.850Z,100020.33
2018-02-05T03:10:21.435Z,100024.06
2018-02-05T03:12:48.988Z,100026.38
2018-02-05T03:15:16.565Z,100037.45
2018-02-05T03:17:44.176Z,100034.61
2018-02-05T03:20:11.760Z,100033.45
2018-02-05T03:22:39.370Z,100038.66
2018-02-05T03:25:07.206Z,100037.02
2018-02-05T03:27:34.770Z,100031.48
2018-02-05T03:30:02.375Z,100034.88
2018-02-05T03:32:29.937Z,100036.52
2018-02-05T03:34:57.518Z,100035.59
2018-02-05T03:37:25.295Z,100037.83
2018-02-05T03:39:52.888Z,100042.34
2018-02-05T03:42:20.435Z,100044.95
2018-02-05T03:44:48.024Z,100042.20
2018-02-05T03:47:15.578Z,100048.45
2018-02-05T03:49:43.495Z,100053.52
2018-02-05T03:52:11.048Z,100059.14
2018-02-05T03:54:38.771Z,100067.73
2018-02-05T03:57:06.340Z,100074.16
2018-02-05T03:59:33.893Z,100070.66
2018-02-05T04:02:01.491Z,100076.07
2018-02-05T04:04:29.634Z,100078.80
2018-02-05T04:07:02.778Z,100078.73
2018-02-05T04:09:30.333Z,100081.95
2018-02-05T04:11:57.883Z,100084.35
2018-02-05T04:14:26.020Z,100088.33
2018-02-05T04:16:53.985Z,100088.23
2018-02-05T04:19:21.591Z,100093.48
2018-02-05T04:21:49.133Z,100101.72
2018-02-05T04:24:16.698Z,100104.88
2018-02-05T04:26:44.307Z,100110.33
2018-02-05T04:29:11.891Z,100114.64
2018-02-05T04:31:40.220Z,100109.53
2018-02-05T04:34:07.780Z,100112.74
2018-02-05T04:36:35.374Z,100117.72
2018-02-05T04:39:02.937Z,100119.80
2018-02-05T04:41:30.496Z,100123.70
2018-02-05T04:43:58.083Z,100123.20
2018-02-05T04:46:25.634Z,100133.07
2018-02-05T04:48:53.218Z,100133.37
2018-02-05T04:51:20.806Z,100131.42
2018-02-05T04:53:48.360Z,100128.82
2018-02-05T04:56:15.968Z,100124.55
2018-02-05T04:58:44.101Z,100126.22
2018-02-05T05:01:12.330Z,100128.75
2018-02-05T05:03:39.934Z,100132.06
2018-02-05T05:06:07.494Z,100137.23
2018-02-05T05:08:35.096Z,100141.91
2018-02-05T05:11:02.641Z,100138.80
2018-02-05T05:13:30.232Z,100151.36
2018-02-05T05:15:58.108Z,100154.81
2018-02-05T05:18:25.698Z,100161.70
2018-02-05T05:20:53.276Z,100155.02
2018-02-05T05:23:20.858Z,100162.55
2018-02-05T05:25:48.415Z,100151.55
2018-02-05T05:28:16.390Z,100155.08
2018-02-05T05:30:43.940Z,100158.45
2018-02-05T05:33:11.535Z,100155.41
2018-02-05T05:35:39.915Z,100158.67
2018-02-05T05:38:07.491Z,100157.77
2018-02-05T05:40:35.051Z,100161.42
2018-02-05T05:43:02.656Z,100161.33
2018-02-05T05:45:30.202Z,100169.47
2018-02-05T05:47:57.758Z,100175.95
2018-02-05T05:50:26.717Z,100180.38
2018-02-05T05:52:54.270Z,100182.83
2018-02-05T05:55:21.950Z,100183.86
2018-02-05T05:57:49.552Z,100179.98
2018-02-05T06:00:17.153Z,100191.72
2018-02-05T06:02:44.776Z,100189.16
2018-02-05T06:05:12.380Z,100193.70
2018-02-05T06:07:39.948Z,100204.83
2018-02-05T06:10:07.559Z,100201.51
2018-02-05T06:12:35.157Z,100208.62
2018-02-05T06:15:02.773Z,100204.19
2018-02-05T06:17:31.134Z,100208.45
2018-02-05T06:19:58.926Z,100208.84
2018-02-05T06:22:26.511Z,100207.99
2018-02-05T06:24:54.072Z,100220.20
2018-02-05T06:27:21.764Z,100224.02
2018-02-05T06:29:49.849Z,100231.83
2018-02-05T06:32:17.449Z,100228.33
2018-02-05T06:34:45.029Z,100230.94
2018-02-05T06:37:12.597Z,100232.36
2018-02-05T06:39:40.203Z,100227.05
2018-02-05T06:42:07.751Z,100228.32
2018-02-05T06:44:35.358Z,100227.44
2018-02-05T06:47:02.985Z,100229.57
2018-02-05T06:49:31.054Z,100237.98
2018-02-05T06:52:10.604Z,100239.22
2018-02-05T06:54:49.842Z,100247.27
2018-02-05T06:57:17.416Z,100253.28
2018-02-05T06:59:45.268Z,100254.84
2018-02-05T07:02:12.860Z,100260.55
2018-02-05T07:04:40.407Z,100264.50
2018-02-05T07:07:08.248Z,100271.81
2018-02-05T07:09:35.816Z,100265.05
2018-02-05T07:12:03.776Z,100266.47
2018-02-05T07:14:31.401Z,100273.45
2018-02-05T07:16:58.962Z,100265.66
2018-02-05T07:19:26.915Z,100273.42
2018-02-05T07:21:54.647Z,100264.52
2018-02-05T07:24:23.206Z,100266.40
2018-02-05T07:26:51.157Z,100268.02
2018-02-05T07:29:18.759Z,100266.20
2018-02-05T07:31:47.059Z,100267.00
2018-02-05T07:34:16.436Z,100275.12
2018-02-05T07:36:45.022Z,100272.63
2018-02-05T07:39:13.376Z,100273.65
2018-02-05T07:41:40.966Z,100272.59
2018-02-05T07:44:08.574Z,100276.59
2018-02-05T07:46:37.139Z,100273.02
2018-02-05T07:49:04.860Z,100268.35
2018-02-05T07:51:33.169Z,100260.50
2018-02-05T07:54:00.766Z,100265.17
2018-02-05T07:56:28.762Z,100257.45
2018-02-05T07:58:56.798Z,100256.53
2018-02-05T08:01:24.581Z,100249.14
2018-02-05T08:03:52.305Z,100256.03
2018-02-05T08:06:20.477Z,100255.94
2018-02-05T08:08:48.340Z,100259.48
2018-02-05T08:11:15.901Z,100262.01
2018-02-05T08:13:43.462Z,100260.14
2018-02-05T08:16:11.059Z,100268.67
2018-02-05T08:18:38.642Z,100270.98
2018-02-05T08:21:07.027Z,100273.16
2018-02-05T08:23:34.584Z,100267.18
2018-02-05T08:26:02.191Z,100264.31
2018-02-05T08:28:29.790Z,100270.00
2018-02-05T08:30:57.749Z,100262.58
2018-02-05T08:33:25.356Z,100264.88
2018-02-05T08:35:53.580Z,100262.48
2018-02-05T08:38:21.148Z,100268.14
2018-02-05T08:40:48.805Z,100265.62
2018-02-05T08:43:16.572Z,100255.95
2018-02-05T08:45:44.605Z,100249.25
2018-02-05T08:48:12.151Z,100259.92
2018-02-05T08:50:40.358Z,100256.65
2018-02-05T08:53:07.985Z,100249.86
2018-02-05T08:55:37.074Z,100255.50
2018-02-05T08:58:05.442Z,100256.19
2018-02-05T09:00:33.235Z,100258.17
2018-02-05T09:03:01.711Z,100252.16
2018-02-05T09:05:30.250Z,100252.78
2018-02-05T09:07:58.871Z,100258.70
2018-02-05T09:10:27.823Z,100256.23
2018-02-05T09:12:55.921Z,100254.37
2018-02-05T09:15:23.505Z,100251.39
2018-02-05T09:17:51.365Z,100253.82
2018-02-05T09:20:19.227Z,100253.36
2018-02-05T09:22:46.804Z,100247.53
2018-02-05T09:25:14.775Z,100244.66
2018-02-05T09:27:43.421Z,100242.86
2018-02-05T09:30:11.015Z,100241.97
2018-02-05T09:32:38.781Z,100238.70
2018-02-05T09:35:07.967Z,100238.88
2018-02-05T09:37:35.564Z,100240.34
2018-02-05T09:40:03.389Z,100233.37
2018-02-05T09:42:31.034Z,100233.86
2018-02-05T09:44:58.634Z,100232.43
2018-02-05T09:47:26.371Z,100235.48
2018-02-05T09:49:54.271Z,100233.36
2018-02-05T09:52:21.937Z,100226.44
2018-02-05T09:54:49.699Z,100226.87
2018-02-05T09:57:17.448Z,100226.38
2018-02-05T09:59:45.229Z,100219.74
2018-02-05T10:02:13.744Z,100213.78
2018-02-05T10:04:41.411Z,100212.48
2018-02-05T10:07:09.128Z,100209.64
2018-02-05T10:09:37.201Z,100208.37
2018-02-05T10:12:04.773Z,100203.59
2018-02-05T10:14:32.383Z,100201.47
2018-02-05T10:17:00.176Z,100190.93
2018-02-05T10:19:28.399Z,100183.72
2018-02-05T10:21:56.005Z,100182.16
2018-02-05T10:24:23.604Z,100179.47
2018-02-05T10:26:51.159Z,100173.81
2018-02-05T10:29:19.022Z,100179.55
2018-02-05T10:31:46.576Z,100176.59
2018-02-05T10:34:14.866Z,100178.65
2018-02-05T10:36:42.758Z,100176.41
2018-02-05T10:39:10.367Z,100170.29
2018-02-05T10:41:38.557Z,100169.55
2018-02-05T10:44:06.199Z,100165.48
2018-02-05T10:46:33.760Z,100162.30
2018-02-05T10:49:01.413Z,100159.41
2018-02-05T10:51:29.627Z,100153.07
2018-02-05T10:53:59.132Z,100157.28
2018-02-05T10:56:26.834Z,100150.15
2018-02-05T10:58:54.875Z,100148.23
2018-02-05T11:01:22.780Z,100150.02
2018-02-05T11:03:50.392Z,100144.36
2018-02-05T11:06:18.664Z,100135.31
2018-02-05T11:08:46.243Z,100134.38
2018-02-05T11:11:13.839Z,100134.88
2018-02-05T11:13:42.744Z,100132.67
2018-02-05T11:16:10.291Z,100132.29
2018-02-05T11:18:38.726Z,100132.67
2018-02-05T11:21:06.336Z,100137.94
2018-02-05T11:23:33.949Z,100128.97
2018-02-05T11:26:02.187Z,100134.69
2018-02-05T11:28:29.990Z,100128.28
2018-02-05T11:30:57.564Z,100130.33
2018-02-05T11:33:25.755Z,100126.47
2018-02-05T11:35:54.220Z,100130.93
2018-02-05T11:38:22.102Z,100128.83
2018-02-05T11:40:49.656Z,100133.73
2018-02-05T11:43:17.421Z,100126.23
2018-02-05T11:45:45.012Z,100127.19
2018-02-05T11:48:12.676Z,100125.78
2018-02-05T11:50:40.268Z,100120.74
2018-02-05T11:53:08.138Z,100114.44
2018-02-05T11:55:36.070Z,100109.13
2018-02-05T11:58:03.721Z,100113.78
2018-02-05T12:00:31.570Z,100112.38
2018-02-05T12:03:00.012Z,100106.23
2018-02-05T12:05:28.075Z,100107.20
2018-02-05T12:07:56.067Z,100105.58
2018-02-05T12:10:24.113Z,100105.11
2018-02-05T12:12:52.507Z,100104.70
2018-02-05T12:15:20.106Z,100101.99
2018-02-05T12:17:48.359Z,100092.81
2018-02-05T12:20:16.213Z,100091.96
2018-02-05T12:22:44.763Z,100091.69
2018-02-05T12:25:12.614Z,100088.80
2018-02-05T12:27:40.900Z,100086.35
2018-02-05T12:30:09.401Z,100084.91
2018-02-05T12:32:37.001Z,100080.70
2018-02-05T12:35:04.617Z,100079.08
2018-02-05T12:37:32.232Z,100071.95
2018-02-05T12:39:59.799Z,100075.43
2018-02-05T12:42:27.716Z,100073.11
2018-02-05T12:44:55.340Z,100077.86
2018-02-05T12:47:22.953Z,100080.07
2018-02-05T12:49:50.528Z,100077.05
2018-02-05T12:52:18.503Z,100066.56
2018-02-05T12:54:46.913Z,100069.62
2018-02-05T12:57:15.237Z,100069.11
2018-02-05T12:59:48.368Z,100068.59
2018-02-05T13:02:16.315Z,100059.16
2018-02-05T13:07:49.715Z,100058.91
2018-02-05T13:10:18.259Z,100056.86
2018-02-05T13:12:46.393Z,100050.48
2018-02-05T13:15:14.004Z,100050.56
2018-02-05T13:17:41.646Z,100051.83
2018-02-05T13:20:09.992Z,100048.27
2018-02-05T13:22:39.473Z,100049.28
2018-02-05T13:25:08.256Z,100044.88
2018-02-05T13:27:35.822Z,100043.77
2018-02-05T13:30:03.438Z,100044.89
2018-02-05T13:32:32.914Z,100041.31
2018-02-05T13:35:00.592Z,100036.05
2018-02-05T13:37:28.305Z,100036.52
2018-02-05T13:39:55.917Z,100034.94
2018-02-05T13:42:23.505Z,100035.61
2018-02-05T13:44:51.168Z,100034.23
2018-02-05T13:47:18.774Z,100035.92
2018-02-05T13:49:46.322Z,100024.84
2018-02-05T13:52:13.982Z,100024.13
2018-02-05T13:54:41.592Z,100031.81
2018-02-05T13:57:09.794Z,100031.64
2018-02-05T13:59:37.378Z,100038.83
2018-02-05T14:02:04.972Z,100034.28
2018-02-05T14:04:32.530Z,100037.20
2018-02-05T14:07:00.122Z,100041.63
2018-02-05T14:09:28.420Z,100037.71
2018-02-05T14:11:56.024Z,100030.61
2018-02-05T14:14:23.613Z,100037.28
2018-02-05T14:16:51.223Z,100037.45
2018-02-05T14:19:19.971Z,100029.65
2018-02-05T14:21:47.588Z,100029.34
2018-02-05T14:24:15.777Z,100038.74
2018-02-05T14:26:44.500Z,100037.55
2018-02-05T14:29:12.152Z,100043.87
2018-02-05T14:31:40.716Z,100043.02
2018-02-05T14:34:09.199Z,100037.59
2018-02-05T14:36:37.805Z,100034.27
2018-02-05T14:39:05.434Z,100041.16
2018-02-05T14:41:33.041Z,100033.05
2018-02-05T14:44:00.592Z,100039.96
2018-02-05T14:46:28.199Z,100033.47
2018-02-05T14:48:57.096Z,100041.96
2018-02-05T14:51:24.686Z,100042.59
2018-02-05T14:53:52.239Z,100041.48
2018-02-05T14:56:19.848Z,100048.73
2018-02-05T14:58:47.398Z,100039.26
2018-02-05T15:01:15.243Z,100049.91
2018-02-05T15:03:43.023Z,100042.98
2018-02-05T15:06:10.964Z,100046.59
2018-02-05T15:08:38.569Z,100041.05
2018-02-05T15:11:06.426Z,100043.04
2018-02-05T15:13:33.984Z,100039.80
2018-02-05T15:16:02.007Z,100045.22
2018-02-05T15:18:29.921Z,100044.48
2018-02-05T15:20:58.042Z,100046.38
2018-02-05T15:23:25.864Z,100047.81
2018-02-05T15:25:53.479Z,100046.19
2018-02-05T15:28:21.381Z,100053.70
2018-02-05T15:30:50.643Z,100052.77
2018-02-05T15:33:19.390Z,100048.85
2018-02-05T15:35:47.988Z,100055.55
2018-02-05T15:38:15.959Z,100049.12
2018-02-05T15:40:44.139Z,100051.02
2018-02-05T15:43:12.268Z,100052.48
2018-02-05T15:45:39.869Z,100050.51
2018-02-05T15:48:08.767Z,100058.94
2018-02-05T15:50:36.671Z,100051.66
2018-02-05T15:53:05.114Z,100051.42
2018-02-05T15:55:32.746Z,100050.69
2018-02-05T15:58:00.687Z,100049.48
2018-02-05T16:00:28.617Z,100049.95
2018-02-05T16:02:56.180Z,100051.48
2018-02-05T16:05:23.787Z,100050.78
2018-02-05T16:07:51.380Z,100047.80
2018-02-05T16:10:19.208Z,100051.09
2018-02-05T16:12:46.811Z,100058.93
2018-02-05T16:15:14.371Z,100058.03
2018-02-05T16:17:42.014Z,100062.23
2018-02-05T16:20:09.581Z,100057.13
2018-02-05T16:22:37.131Z,100059.97
2018-02-05T16:25:04.833Z,100066.63
2018-02-05T16:27:32.667Z,100067.92
2018-02-05T16:30:00.258Z,100069.70
2018-02-05T16:32:27.811Z,100071.85
2018-02-05T16:34:55.408Z,100070.15
2018-02-05T16:37:24.799Z,100065.35
2018-02-05T16:39:52.809Z,100068.64
2018-02-05T16:42:21.220Z,100066.28
2018-02-05T16:44:49.196Z,100065.81
2018-02-05T16:47:16.791Z,100070.81
2018-02-05T16:49:44.347Z,100076.84
2018-02-05T16:52:12.798Z,100079.95
2018-02-05T16:54:41.204Z,100080.63
2018-02-05T16:57:09.144Z,100081.19
2018-02-05T16:59:36.744Z,100078.34
2018-02-05T17:02:04.670Z,100082.97
2018-02-05T17:04:32.636Z,100074.15
2018-02-05T17:07:00.966Z,100081.38
2018-02-05T17:09:28.576Z,100082.49
2018-02-05T17:11:58.283Z,100082.23
2018-02-05T17:14:26.593Z,100078.27
2018-02-05T17:16:54.668Z,100076.37
2018-02-05T17:19:22.615Z,100078.03
2018-02-05T17:21:51.113Z,100075.77
2018-02-05T17:24:18.708Z,100086.75
2018-02-05T17:26:48.236Z,100082.48
2018-02-05T17:29:15.848Z,100078.37
2018-02-05T17:31:43.668Z,100081.80
2018-02-05T17:34:11.532Z,100082.23
2018-02-05T17:36:39.792Z,100083.67
2018-02-05T17:39:08.279Z,100072.55
2018-02-05T17:41:35.884Z,100077.34
2018-02-05T17:44:03.946Z,100076.04
2018-02-05T17:46:31.505Z,100073.45
2018-02-05T17:48:59.972Z,100078.96
2018-02-05T17:51:27.583Z,100074.92
2018-02-05T17:53:55.152Z,100077.66
2018-02-05T17:56:23.160Z,100082.82
2018-02-05T17:58:52.683Z,100083.95
2018-02-05T18:01:20.666Z,100088.88
2018-02-05T18:03:48.568Z,100087.77
2018-02-05T18:06:16.896Z,100095.57
2018-02-05T18:08:45.521Z,100094.90
2018-02-05T18:11:14.682Z,100093.41
2018-02-05T18:13:42.276Z,100087.66
2018-02-05T18:16:10.815Z,100091.78
2018-02-05T18:18:38.953Z,100085.49
2018-02-05T18:21:06.992Z,100090.31
2018-02-05T18:23:35.036Z,100092.78
2018-02-05T18:26:03.312Z,100094.86
2018-02-05T18:28:31.676Z,100097.61
2018-02-05T18:31:00.224Z,100100.08
2018-02-05T18:33:27.821Z,100105.13
2018-02-05T18:35:56.815Z,100102.47
2018-02-05T18:38:24.402Z,100107.66
2018-02-05T18:40:52.253Z,100102.05
2018-02-05T18:43:20.020Z,100110.05
2018-02-05T18:45:48.190Z,100105.07
2018-02-05T18:48:16.204Z,100113.10
2018-02-05T18:50:45.384Z,100117.57
2018-02-05T18:53:13.753Z,100117.38
2018-02-05T18:55:42.806Z,100116.62
2018-02-05T18:58:11.116Z,100111.63
2018-02-05T19:00:49.335Z,100110.09
2018-02-05T19:03:18.149Z,100112.17
2018-02-05T19:05:46.592Z,100112.55
2018-02-05T19:08:14.732Z,100116.09
2018-02-05T19:10:44.271Z,100119.08
2018-02-05T19:13:12.361Z,100120.17
2018-02-05T19:15:41.455Z,100124.31
2018-02-05T19:18:09.791Z,100118.48
2018-02-05T19:20:38.516Z,100124.87
2018-02-05T19:23:07.747Z,100122.83
2018-02-05T19:25:36.916Z,100127.06
2018-02-05T19:28:05.580Z,100126.10
2018-02-05T19:30:33.874Z,100131.58
2018-02-05T19:33:02.864Z,100127.92
2018-02-05T19:35:31.349Z,100134.64
2018-02-05T19:38:03.615Z,100135.48
2018-02-05T19:40:32.436Z,100128.73
2018-02-05T19:43:02.167Z,100129.18
2018-02-05T19:45:30.688Z,100126.56
2018-02-05T19:47:59.247Z,100141.39
2018-02-05T19:50:28.276Z,100140.31
2018-02-05T19:52:58.905Z,100136.28
2018-02-05T19:55:29.148Z,100136.55
2018-02-05T19:57:59.246Z,100139.14
2018-02-05T20:00:27.956Z,100138.27
2018-02-05T20:02:56.972Z,100139.27
2018-02-05T20:05:26.839Z,100135.47
2018-02-05T20:07:56.137Z,100140.02
2018-02-05T20:10:24.514Z,100136.61
2018-02-05T20:12:53.807Z,100137.06
2018-02-05T20:15:23.025Z,100129.72
2018-02-05T20:17:53.161Z,100128.03
2018-02-05T20:20:23.561Z,100123.65
2018-02-05T20:22:53.473Z,100127.80
2018-02-05T20:25:21.739Z,100124.28
2018-02-05T20:27:49.824Z,100132.72
2018-02-05T20:30:17.787Z,100133.28
2018-02-05T20:32:45.879Z,100128.65
2018-02-05T20:35:15.889Z,100129.08
2018-02-05T20:37:45.264Z,100130.58
2018-02-05T20:40:14.570Z,100129.42
2018-02-05T20:42:43.689Z,100132.91
2018-02-05T20:45:12.955Z,100129.80
2018-02-05T20:47:46.298Z,100134.84
2018-02-05T20:50:14.545Z,100137.28
2018-02-05T20:52:43.824Z,100137.08
2018-02-05T20:55:12.426Z,100136.73
2018-02-05T20:57:40.346Z,100140.95
2018-02-05T21:00:08.210Z,100150.05
2018-02-05T21:02:36.294Z,100144.36
2018-02-05T21:05:04.187Z,100145.74
2018-02-05T21:07:32.365Z,100134.77
2018-02-05T21:10:00.430Z,100143.70
2018-02-05T21:12:28.554Z,100147.62
2018-02-05T21:14:59.190Z,100155.05
2018-02-05T21:17:27.361Z,100146.85
2018-02-05T21:19:55.669Z,100142.94
2018-02-05T21:22:23.262Z,100144.19
2018-02-05T21:24:52.851Z,100150.75
2018-02-05T21:27:20.452Z,100150.06
2018-02-05T21:29:48.041Z,100154.42
2018-02-05T21:32:16.297Z,100162.34
2018-02-05T21:34:43.867Z,100157.85
2018-02-05T21:37:11.472Z,100158.67
2018-02-05T21:39:39.034Z,100162.34
2018-02-05T21:42:07.879Z,100161.89
2018-02-05T21:44:35.467Z,100165.48
2018-02-05T21:47:03.028Z,100162.66
2018-02-05T21:49:30.611Z,100163.38
2018-02-05T21:51:58.172Z,100168.45
2018-02-05T21:54:25.777Z,100170.44
2018-02-05T21:56:53.319Z,100171.81
2018-02-05T21:59:20.927Z,100172.63
2018-02-05T22:01:48.467Z,100174.53
2018-02-05T22:04:16.468Z,100180.02
2018-02-05T22:06:44.011Z,100185.94
2018-02-05T22:09:11.555Z,100189.70
2018-02-05T22:11:39.152Z,100186.67
2018-02-05T22:14:06.763Z,100194.43
2018-02-05T22:16:34.719Z,100197.45
2018-02-05T22:19:02.310Z,100200.16
2018-02-05T22:21:29.872Z,100210.95
2018-02-05T22:23:57.425Z,100203.45
2018-02-05T22:26:25.014Z,100214.74
2018-02-05T22:28:52.568Z,100216.11
2018-02-05T22:31:20.475Z,100216.87
2018-02-05T22:33:48.428Z,100216.21
2018-02-05T22:36:15.971Z,100215.73
2018-02-05T22:38:44.144Z,100217.88
2018-02-05T22:41:11.735Z,100226.87
2018-02-05T22:43:39.324Z,100228.29
2018-02-05T22:46:06.908Z,100230.55
2018-02-05T22:48:34.495Z,100234.73
2018-02-05T22:51:02.039Z,100233.36
2018-02-05T22:53:29.652Z,100231.91
2018-02-05T22:55:57.196Z,100231.55
2018-02-05T22:58:24.803Z,100234.98
2018-02-05T23:00:52.360Z,100232.65
2018-02-05T23:03:19.955Z,100236.83
2018-02-05T23:05:47.960Z,100232.34
2018-02-05T23:08:15.499Z,100238.52
2018-02-05T23:10:43.062Z,100240.52
2018-02-05T23:13:10.657Z,100236.70
2018-02-05T23:15:38.207Z,100236.20
2018-02-05T23:18:05.812Z,100228.23
2018-02-05T23:20:33.418Z,100224.72
2018-02-05T23:23:00.964Z,100225.48
2018-02-05T23:25:29.148Z,100225.42
2018-02-05T23:27:56.743Z,100218.09
2018-02-05T23:30:24.276Z,100222.29
2018-02-05T23:32:51.876Z,100221.41
2018-02-05T23:35:19.473Z,100223.63
2018-02-05T23:37:47.029Z,100218.30
2018-02-05T23:40:14.628Z,100218.48
2018-02-05T23:42:42.880Z,100210.34
2018-02-05T23:45:10.480Z,100221.10
2018-02-05T23:47:38.930Z,100222.50
2018-02-05T23:50:06.982Z,100222.92
2018-02-05T23:52:34.527Z,100204.98
2018-02-05T23:55:02.135Z,100208.77
2018-02-05T23:57:29.689Z,100207.69
2018-02-05T23:59:57.243Z,100205.91
